Time;durP1;ratioP1;P1;durP2;ratioP2;P2;SDS_P1;SDS_P2;PMS_P1;PMS_P2;Temp;Humidity;BMP_temperature;BMP_pressure;BME280_temperature;BME280_humidity;BME280_pressure;Samples;Min_cycle;Max_cycle;Signal;HPM_P1;HPM_P2
2023/01/04 00:01:24;;;;;;;0.70;0.70;;;3.50;99.90;;;;;;5076421;28;20535;-82
2023/01/04 00:03:51;;;;;;;0.90;0.90;;;3.50;99.90;;;;;;5076267;28;20477;-83
2023/01/04 00:06:20;;;;;;;1.00;0.90;;;3.50;99.90;;;;;;5076100;28;20498;-82
2023/01/04 00:08:47;;;;;;;1.43;0.50;;;3.60;99.90;;;;;;5076293;28;20455;-83
2023/01/04 00:11:16;;;;;;;0.40;0.30;;;3.60;99.90;;;;;;5076471;28;20535;-83
2023/01/04 00:13:43;;;;;;;1.30;1.30;;;3.60;99.90;;;;;;5075779;28;20485;-83
2023/01/04 00:16:13;;;;;;;0.80;0.40;;;3.60;99.90;;;;;;5076007;28;20492;-83
2023/01/04 00:18:40;;;;;;;0.50;0.50;;;3.60;99.90;;;;;;5075759;28;20453;-83
2023/01/04 00:21:08;;;;;;;3.63;0.77;;;3.50;99.90;;;;;;5076023;28;20457;-83
2023/01/04 00:23:37;;;;;;;0.83;0.50;;;3.50;99.90;;;;;;5075717;28;20437;-82
2023/01/04 00:26:07;;;;;;;0.30;0.30;;;3.50;99.90;;;;;;5075666;28;20441;-82
2023/01/04 00:28:34;;;;;;;0.97;0.73;;;3.50;99.90;;;;;;5076056;28;20483;-82
2023/01/04 00:31:03;;;;;;;0.87;0.60;;;3.40;99.90;;;;;;5075601;28;20963;-83
2023/01/04 00:33:29;;;;;;;1.30;1.00;;;3.40;99.90;;;;;;5075652;28;20453;-82
2023/01/04 00:35:56;;;;;;;0.40;0.30;;;3.40;99.90;;;;;;5075554;28;20485;-83
2023/01/04 00:38:23;;;;;;;0.30;0.30;;;3.50;99.90;;;;;;5075951;28;20448;-82
2023/01/04 00:40:51;;;;;;;0.57;0.57;;;3.50;99.90;;;;;;5075350;28;20820;-82
2023/01/04 00:43:17;;;;;;;0.60;0.60;;;3.40;99.90;;;;;;5075649;28;20446;-82
2023/01/04 00:45:44;;;;;;;1.90;0.60;;;3.40;99.90;;;;;;5075642;28;20441;-83
2023/01/04 00:48:11;;;;;;;5.03;0.93;;;3.50;99.90;;;;;;5075359;28;20445;-83
2023/01/04 00:50:38;;;;;;;2.23;1.13;;;3.60;99.90;;;;;;5075508;28;20455;-83
2023/01/04 00:53:04;;;;;;;0.70;0.50;;;3.50;99.90;;;;;;5075497;28;20452;-83
2023/01/04 00:55:31;;;;;;;0.30;0.30;;;3.50;99.90;;;;;;5075300;28;20469;-83
2023/01/04 00:58:00;;;;;;;0.40;0.40;;;3.50;99.90;;;;;;5075420;28;20446;-82
2023/01/04 01:00:26;;;;;;;0.30;0.30;;;3.60;99.90;;;;;;5075352;28;20442;-82
2023/01/04 01:02:53;;;;;;;0.30;0.30;;;3.50;99.90;;;;;;5074989;28;20975;-82
2023/01/04 01:05:20;;;;;;;0.37;0.37;;;3.50;99.90;;;;;;5075233;28;20465;-82
2023/01/04 01:07:47;;;;;;;0.30;0.30;;;3.50;99.90;;;;;;5075167;28;20465;-83
2023/01/04 01:10:13;;;;;;;0.60;0.60;;;3.50;99.90;;;;;;5075475;28;20450;-82
2023/01/04 01:12:40;;;;;;;0.50;0.50;;;3.50;99.90;;;;;;5074873;28;20492;-82
2023/01/04 01:15:10;;;;;;;1.07;0.50;;;3.50;99.90;;;;;;5075021;28;20492;-83
2023/01/04 01:17:37;;;;;;;0.47;0.47;;;3.50;99.90;;;;;;5074947;28;20481;-83
2023/01/04 01:20:05;;;;;;;0.40;0.40;;;3.60;99.90;;;;;;5075205;28;20456;-83
2023/01/04 01:22:34;;;;;;;0.60;0.60;;;3.60;99.90;;;;;;5074590;28;20457;-83
2023/01/04 01:25:01;;;;;;;1.37;1.33;;;3.70;99.90;;;;;;5074499;28;20980;-82
2023/01/04 01:27:28;;;;;;;0.70;0.37;;;3.70;99.90;;;;;;5074850;28;20426;-83
2023/01/04 01:29:55;;;;;;;0.40;0.30;;;3.60;99.90;;;;;;5074943;28;20450;-83
2023/01/04 01:32:23;;;;;;;0.90;0.90;;;3.70;99.90;;;;;;5074733;28;20450;-83
2023/01/04 01:34:49;;;;;;;2.00;0.97;;;3.70;99.90;;;;;;5074303;28;20827;-82
2023/01/04 01:37:16;;;;;;;0.30;0.30;;;3.80;99.90;;;;;;5074558;28;20484;-83
2023/01/04 01:39:43;;;;;;;0.50;0.50;;;3.80;99.90;;;;;;5074314;28;20456;-83
2023/01/04 01:42:19;;;;;;;0.77;0.40;;;3.70;99.90;;;;;;5074509;28;20449;-83
2023/01/04 01:44:59;;;;;;;1.03;0.50;;;3.80;99.90;;;;;;5073970;28;21053;-83
2023/01/04 01:47:36;;;;;;;0.50;0.33;;;3.70;99.90;;;;;;5073845;28;20909;-83
2023/01/04 01:50:04;;;;;;;0.40;0.30;;;3.70;99.90;;;;;;5074501;28;20434;-82
2023/01/04 01:52:35;;;;;;;0.43;0.43;;;3.70;99.90;;;;;;5074278;28;20452;-82
2023/01/04 01:55:06;;;;;;;0.40;0.37;;;3.60;99.90;;;;;;5074498;28;20453;-83
2023/01/04 01:57:36;;;;;;;0.40;0.40;;;3.60;99.90;;;;;;5074346;28;20470;-82
2023/01/04 02:00:08;;;;;;;2.87;0.90;;;3.60;99.90;;;;;;5074170;28;20437;-82
2023/01/04 02:02:36;;;;;;;0.93;0.93;;;3.60;99.90;;;;;;5074095;28;20410;-83
2023/01/04 02:05:03;;;;;;;0.60;0.60;;;3.60;99.90;;;;;;5074782;28;20462;-83
2023/01/04 02:07:31;;;;;;;0.80;0.50;;;3.50;99.90;;;;;;5073972;28;20484;-83
2023/01/04 02:09:58;;;;;;;0.40;0.37;;;3.50;99.90;;;;;;5074151;28;20454;-82
2023/01/04 02:12:25;;;;;;;0.93;0.30;;;3.50;99.90;;;;;;5073765;28;20437;-83
2023/01/04 02:14:52;;;;;;;1.50;0.57;;;3.50;99.90;;;;;;5073873;28;20527;-82
2023/01/04 02:17:30;;;;;;;0.43;0.40;;;3.40;99.90;;;;;;5073770;28;20484;-83
2023/01/04 02:20:25;;;;;;;0.77;0.50;;;3.40;99.90;;;;;;5073910;28;20434;-83
2023/01/04 02:23:19;;;;;;;2.80;0.40;;;3.40;99.90;;;;;;5073488;28;20917;-82
2023/01/04 02:26:30;;;;;;;0.30;0.30;;;3.40;99.90;;;;;;5073802;28;20453;-82
2023/01/04 02:29:36;;;;;;;0.40;0.30;;;3.40;99.90;;;;;;5058541;28;20454;-83
2023/01/04 02:32:12;;;;;;;0.30;0.30;;;3.40;99.90;;;;;;5073697;28;20430;-82
2023/01/04 02:34:45;;;;;;;0.30;0.30;;;3.40;99.90;;;;;;5073840;28;20472;-82
2023/01/04 02:37:19;;;;;;;1.83;0.80;;;3.40;99.90;;;;;;5073437;28;20976;-82
2023/01/04 02:39:56;;;;;;;1.87;0.70;;;3.40;99.90;;;;;;5073641;28;20433;-83
2023/01/04 02:44:51;;;;;;;0.40;0.40;;;3.30;99.90;;;;;;5073319;28;20441;-82
2023/01/04 02:45:20;;;;;;;0.30;0.30;;;3.30;99.90;;;;;;5073015;28;20466;-83
2023/01/04 02:50:35;;;;;;;0.30;0.30;;;3.30;99.90;;;;;;5073504;28;20491;-83
2023/01/04 02:53:08;;;;;;;0.63;0.63;;;3.30;99.90;;;;;;5073440;28;20824;-82
2023/01/04 02:55:46;;;;;;;0.40;0.30;;;3.30;99.90;;;;;;5073125;28;20470;-82
2023/01/04 02:58:27;;;;;;;0.67;0.30;;;3.30;99.90;;;;;;5072650;28;20472;-82
2023/01/04 03:06:45;;;;;;;0.60;0.60;;;3.30;99.90;;;;;;5073072;28;20791;-82
2023/01/04 03:09:18;;;;;;;1.97;0.43;;;3.30;99.90;;;;;;5073293;28;20425;-83
2023/01/04 03:14:38;;;;;;;0.93;0.93;;;3.20;99.90;;;;;;5073042;28;20472;-82
2023/01/04 03:17:08;;;;;;;0.30;0.20;;;3.20;99.90;;;;;;5072852;28;20983;-82
2023/01/04 03:36:41;;;;;;;0.30;0.30;;;3.20;99.90;;;;;;5073026;28;20465;-82
2023/01/04 03:50:37;;;;;;;2.30;1.17;;;3.30;99.90;;;;;;5072913;28;20893;-82
2023/01/04 03:53:07;;;;;;;0.30;0.20;;;3.30;99.90;;;;;;5073101;28;20433;-82
2023/01/04 03:55:35;;;;;;;0.30;0.20;;;3.40;99.90;;;;;;5072663;28;20822;-82
2023/01/04 03:58:02;;;;;;;0.30;0.30;;;3.40;99.90;;;;;;5072627;28;20836;-82
2023/01/04 04:00:29;;;;;;;0.53;0.53;;;3.50;99.90;;;;;;5072754;28;20457;-82
2023/01/04 04:03:05;;;;;;;0.30;0.30;;;3.60;99.90;;;;;;5072405;28;20949;-82
2023/01/04 04:08:28;;;;;;;0.30;0.20;;;3.70;99.90;;;;;;5072775;28;20908;-81
2023/01/04 04:10:55;;;;;;;1.23;0.43;;;3.80;99.90;;;;;;5074974;28;20882;-82
2023/01/04 04:13:23;;;;;;;0.60;0.40;;;3.80;99.90;;;;;;5075808;28;20488;-83
2023/01/04 04:15:52;;;;;;;0.30;0.30;;;3.80;99.90;;;;;;5076185;28;20456;-83
2023/01/04 04:18:19;;;;;;;0.40;0.40;;;3.80;99.90;;;;;;5076057;28;20481;-83
2023/01/04 04:20:46;;;;;;;0.30;0.30;;;3.80;99.90;;;;;;5076809;28;20454;-83
2023/01/04 04:23:12;;;;;;;0.90;0.60;;;3.90;99.90;;;;;;5075752;28;21050;-82
2023/01/04 04:25:40;;;;;;;3.20;0.50;;;4.00;99.90;;;;;;5075964;28;20469;-83
2023/01/04 04:28:07;;;;;;;6.60;2.00;;;4.00;99.90;;;;;;5075945;28;20441;-83
2023/01/04 04:30:34;;;;;;;0.40;0.30;;;4.00;99.90;;;;;;5075914;28;20798;-83
2023/01/04 04:33:01;;;;;;;0.30;0.30;;;4.10;99.90;;;;;;5075612;28;20449;-83
2023/01/04 04:35:27;;;;;;;0.30;0.20;;;4.10;99.90;;;;;;5075819;28;20469;-83
2023/01/04 04:37:54;;;;;;;0.37;0.37;;;4.20;99.90;;;;;;5075386;28;21004;-83
2023/01/04 04:43:09;;;;;;;0.30;0.20;;;4.20;99.90;;;;;;5075766;28;20543;-82
2023/01/04 04:45:36;;;;;;;0.30;0.30;;;4.40;99.90;;;;;;5075331;28;20988;-83
2023/01/04 04:48:03;;;;;;;0.80;0.67;;;4.40;99.90;;;;;;5075547;28;20457;-82
2023/01/04 04:50:30;;;;;;;0.30;0.30;;;4.40;99.90;;;;;;5075252;28;20449;-83
2023/01/04 04:52:57;;;;;;;0.33;0.27;;;4.60;99.90;;;;;;5075553;28;20469;-83
2023/01/04 04:55:24;;;;;;;0.40;0.40;;;4.60;99.90;;;;;;5075371;28;20498;-83
2023/01/04 04:57:51;;;;;;;0.40;0.30;;;4.60;99.90;;;;;;5075032;28;21003;-82
2023/01/04 05:00:19;;;;;;;0.30;0.20;;;4.70;99.90;;;;;;5075213;28;20417;-83
2023/01/04 05:02:45;;;;;;;0.40;0.40;;;4.70;99.90;;;;;;5075656;28;20441;-82
2023/01/04 05:05:12;;;;;;;1.27;0.30;;;4.70;99.90;;;;;;5075229;28;20842;-82
2023/01/04 05:07:39;;;;;;;0.43;0.33;;;4.80;99.90;;;;;;5074965;28;20437;-82
2023/01/04 05:10:06;;;;;;;0.93;0.40;;;4.80;99.90;;;;;;5075220;28;20445;-82
2023/01/04 05:15:19;;;;;;;0.40;0.30;;;4.80;99.90;;;;;;5074860;28;20811;-82
2023/01/04 05:17:45;;;;;;;0.30;0.30;;;4.90;99.90;;;;;;5074958;28;20481;-82
2023/01/04 05:20:12;;;;;;;0.80;0.47;;;4.90;99.90;;;;;;5074963;28;20460;-82
2023/01/04 05:22:39;;;;;;;1.73;0.60;;;4.90;99.90;;;;;;5073725;28;20434;-82
2023/01/04 05:25:08;;;;;;;0.30;0.30;;;5.00;99.90;;;;;;5074488;28;20474;-82
2023/01/04 05:27:35;;;;;;;1.07;0.50;;;5.00;99.90;;;;;;5074796;28;20445;-81
2023/01/04 05:32:49;;;;;;;0.30;0.30;;;5.00;99.90;;;;;;5074450;28;20498;-82
2023/01/04 05:35:16;;;;;;;0.30;0.30;;;5.10;99.90;;;;;;5074341;28;20453;-82
2023/01/04 05:37:43;;;;;;;0.50;0.30;;;5.00;99.90;;;;;;5074171;28;21012;-82
2023/01/04 05:40:10;;;;;;;0.60;0.60;;;5.00;99.90;;;;;;5074561;28;20452;-82
2023/01/04 05:42:37;;;;;;;0.30;0.30;;;5.10;99.90;;;;;;5074712;28;20445;-82
2023/01/04 05:45:04;;;;;;;0.60;0.37;;;5.10;99.90;;;;;;5074277;28;20981;-82
2023/01/04 05:47:31;;;;;;;0.53;0.40;;;5.10;99.90;;;;;;5074201;28;20437;-82
2023/01/04 05:49:59;;;;;;;0.50;0.30;;;5.20;99.90;;;;;;5074332;28;20453;-82
2023/01/04 05:52:26;;;;;;;7.73;0.73;;;5.10;99.90;;;;;;5073974;28;20456;-82
2023/01/04 05:54:53;;;;;;;0.40;0.33;;;5.10;99.90;;;;;;5074296;28;20478;-82
2023/01/04 05:57:20;;;;;;;0.30;0.30;;;5.10;99.90;;;;;;5074186;28;20488;-82
2023/01/04 05:59:46;;;;;;;0.40;0.30;;;5.10;99.90;;;;;;5073954;28;20430;-82
2023/01/04 06:02:16;;;;;;;2.10;0.50;;;5.10;99.90;;;;;;5074186;28;20450;-82
2023/01/04 06:04:43;;;;;;;0.30;0.20;;;5.20;99.90;;;;;;5074153;28;20470;-82
2023/01/04 06:07:11;;;;;;;0.50;0.30;;;5.20;99.90;;;;;;5074157;28;20438;-83
2023/01/04 06:09:38;;;;;;;0.30;0.20;;;5.20;99.90;;;;;;5074267;28;20453;-82
2023/01/04 06:12:05;;;;;;;0.40;0.30;;;5.30;99.90;;;;;;5074068;28;20445;-82
2023/01/04 06:14:32;;;;;;;0.60;0.50;;;5.30;99.90;;;;;;5073593;28;20488;-82
2023/01/04 06:16:59;;;;;;;0.73;0.73;;;5.30;99.90;;;;;;5073764;28;20454;-82
2023/01/04 06:19:26;;;;;;;0.57;0.57;;;5.30;99.90;;;;;;5073861;28;20539;-82
2023/01/04 06:21:53;;;;;;;0.60;0.40;;;5.40;99.90;;;;;;5073801;28;20438;-82
2023/01/04 06:24:21;;;;;;;0.30;0.30;;;5.40;99.90;;;;;;5074231;28;20454;-82
2023/01/04 06:26:47;;;;;;;0.30;0.20;;;5.50;99.90;;;;;;5073449;28;20449;-82
2023/01/04 06:29:14;;;;;;;0.30;0.30;;;5.40;99.90;;;;;;5073690;28;20442;-83
2023/01/04 06:31:41;;;;;;;0.33;0.30;;;5.40;99.90;;;;;;5073371;28;20460;-82
2023/01/04 06:34:11;;;;;;;0.30;0.30;;;5.50;99.90;;;;;;5073399;28;20472;-83
2023/01/04 06:36:38;;;;;;;0.30;0.20;;;5.50;99.90;;;;;;5073239;28;20953;-83
2023/01/04 06:39:05;;;;;;;0.37;0.33;;;5.50;99.90;;;;;;5073426;28;20492;-83
2023/01/04 06:41:33;;;;;;;0.30;0.20;;;5.50;99.90;;;;;;5073457;28;20445;-83
2023/01/04 06:44:00;;;;;;;0.30;0.30;;;5.50;99.90;;;;;;5073192;28;20985;-83
2023/01/04 06:46:27;;;;;;;0.30;0.27;;;5.60;99.90;;;;;;5073507;28;20446;-83
2023/01/04 06:48:54;;;;;;;0.30;0.30;;;5.60;99.90;;;;;;5073100;28;20976;-83
2023/01/04 06:51:21;;;;;;;0.30;0.20;;;5.60;99.90;;;;;;5073182;28;20434;-83
2023/01/04 06:53:48;;;;;;;0.30;0.27;;;5.60;99.90;;;;;;5072995;28;21015;-83
2023/01/04 06:56:14;;;;;;;0.40;0.30;;;5.60;99.90;;;;;;5073049;28;20822;-82
2023/01/04 06:58:43;;;;;;;0.30;0.30;;;5.60;99.90;;;;;;5073350;28;20481;-82
2023/01/04 07:01:10;;;;;;;1.13;0.50;;;5.60;99.90;;;;;;5073322;28;20454;-82
2023/01/04 07:03:36;;;;;;;0.30;0.30;;;5.60;99.90;;;;;;5073261;28;20456;-82
2023/01/04 07:06:05;;;;;;;0.30;0.20;;;5.50;99.90;;;;;;5073115;28;20458;-83
2023/01/04 07:08:31;;;;;;;1.10;0.53;;;5.60;99.90;;;;;;5073090;28;20995;-83
2023/01/04 07:10:58;;;;;;;0.47;0.43;;;5.60;99.90;;;;;;5073313;28;20453;-83
2023/01/04 07:13:25;;;;;;;0.30;0.30;;;5.60;99.90;;;;;;5072950;28;20484;-83
2023/01/04 07:15:53;;;;;;;0.30;0.20;;;5.70;99.90;;;;;;5073171;28;20468;-83
2023/01/04 07:18:20;;;;;;;0.30;0.30;;;5.70;99.90;;;;;;5073095;28;20488;-83
2023/01/04 07:20:47;;;;;;;0.47;0.40;;;5.70;99.90;;;;;;5073787;28;20796;-83
2023/01/04 07:23:13;;;;;;;0.30;0.20;;;5.70;99.90;;;;;;5073085;28;20457;-83
2023/01/04 07:25:40;;;;;;;0.30;0.20;;;5.70;99.90;;;;;;5073119;28;20482;-83
2023/01/04 07:28:08;;;;;;;0.40;0.40;;;5.70;99.90;;;;;;5072887;28;20797;-82
2023/01/04 07:30:35;;;;;;;0.30;0.20;;;5.80;99.90;;;;;;5071511;28;20824;-82
2023/01/04 07:33:03;;;;;;;0.70;0.47;;;5.70;99.90;;;;;;5073038;28;20801;-82
2023/01/04 07:35:30;;;;;;;0.93;0.30;;;5.70;99.90;;;;;;5072906;28;21015;-82
2023/01/04 07:37:56;;;;;;;0.30;0.20;;;5.60;99.90;;;;;;5072894;28;20568;-81
2023/01/04 07:40:23;;;;;;;0.30;0.20;;;5.60;99.90;;;;;;5072702;28;20453;-81
2023/01/04 07:42:55;;;;;;;0.30;0.20;;;5.50;99.90;;;;;;5072931;28;20453;-81
2023/01/04 07:45:22;;;;;;;0.30;0.27;;;5.50;99.90;;;;;;5074422;28;20473;-80
2023/01/04 07:47:49;;;;;;;0.30;0.30;;;5.50;99.90;;;;;;5076377;28;20437;-80
2023/01/04 07:50:17;;;;;;;0.30;0.20;;;5.40;99.90;;;;;;5076683;28;20444;-80
2023/01/04 07:52:44;;;;;;;0.30;0.20;;;5.40;99.90;;;;;;5076715;28;20453;-80
2023/01/04 07:55:10;;;;;;;0.30;0.20;;;5.40;99.90;;;;;;5076661;28;20469;-80
2023/01/04 07:57:37;;;;;;;0.30;0.30;;;5.40;99.90;;;;;;5076135;28;20951;-80
2023/01/04 08:00:05;;;;;;;0.30;0.30;;;5.30;99.90;;;;;;5076363;28;20472;-80
2023/01/04 08:02:32;;;;;;;0.30;0.23;;;5.30;99.90;;;;;;5076162;28;20434;-80
2023/01/04 08:04:58;;;;;;;0.30;0.30;;;5.30;99.90;;;;;;5076427;28;20480;-80
2023/01/04 08:07:27;;;;;;;0.30;0.20;;;5.20;99.90;;;;;;5076340;28;20433;-80
2023/01/04 08:09:53;;;;;;;0.30;0.20;;;5.20;99.90;;;;;;5076371;28;20434;-80
2023/01/04 08:12:20;;;;;;;0.30;0.30;;;5.20;99.90;;;;;;5076281;28;20426;-80
2023/01/04 08:14:47;;;;;;;0.30;0.30;;;5.20;99.90;;;;;;5075868;28;20468;-80
2023/01/04 08:17:13;;;;;;;0.30;0.30;;;5.20;99.90;;;;;;5076212;28;20437;-81
2023/01/04 08:19:40;;;;;;;0.30;0.30;;;5.20;99.90;;;;;;5075900;28;20808;-81
2023/01/04 08:22:07;;;;;;;0.30;0.20;;;5.20;99.90;;;;;;5076004;28;20445;-80
2023/01/04 08:24:35;;;;;;;0.30;0.30;;;5.20;99.90;;;;;;5076000;28;20469;-81
2023/01/04 08:27:02;;;;;;;0.30;0.30;;;5.20;99.90;;;;;;5075986;28;20480;-81
2023/01/04 08:29:29;;;;;;;0.30;0.30;;;5.20;99.90;;;;;;5075978;28;20822;-81
2023/01/04 08:31:55;;;;;;;0.50;0.40;;;5.30;99.90;;;;;;5075914;28;20928;-81
2023/01/04 08:34:22;;;;;;;0.30;0.30;;;5.20;99.90;;;;;;5075902;28;20976;-80
2023/01/04 08:36:52;;;;;;;0.30;0.23;;;5.30;99.90;;;;;;5075975;28;20445;-80
2023/01/04 08:39:20;;;;;;;0.30;0.23;;;5.30;99.90;;;;;;5075732;28;20484;-81
2023/01/04 08:41:52;;;;;;;0.30;0.30;;;5.40;99.90;;;;;;5075663;28;20449;-81
2023/01/04 08:44:20;;;;;;;0.30;0.20;;;5.40;99.90;;;;;;5075789;28;20473;-81
2023/01/04 08:46:47;;;;;;;0.30;0.30;;;5.40;99.90;;;;;;5075459;28;20961;-80
2023/01/04 08:49:14;;;;;;;0.30;0.30;;;5.50;99.90;;;;;;5075695;28;20448;-80
2023/01/04 08:51:41;;;;;;;0.40;0.30;;;5.50;99.90;;;;;;5075557;28;20452;-81
2023/01/04 08:54:07;;;;;;;0.30;0.20;;;5.50;99.90;;;;;;5075686;28;20479;-81
2023/01/04 08:56:34;;;;;;;0.40;0.30;;;5.60;99.90;;;;;;5075132;28;20446;-81
2023/01/04 08:59:03;;;;;;;0.30;0.20;;;5.60;99.90;;;;;;5075277;28;21011;-81
2023/01/04 09:01:31;;;;;;;0.30;0.20;;;5.60;99.90;;;;;;5075125;28;20832;-81
2023/01/04 09:03:58;;;;;;;0.30;0.30;;;5.60;99.90;;;;;;5075295;28;20462;-81
2023/01/04 09:06:25;;;;;;;0.30;0.30;;;5.70;99.90;;;;;;5075234;28;20457;-81
2023/01/04 09:08:52;;;;;;;0.30;0.30;;;5.70;99.90;;;;;;5075483;28;20438;-81
2023/01/04 09:11:20;;;;;;;0.30;0.30;;;5.70;99.90;;;;;;5075265;28;20433;-81
2023/01/04 09:13:48;;;;;;;0.60;0.60;;;5.70;99.90;;;;;;5074898;28;20486;-81
2023/01/04 09:16:18;;;;;;;0.30;0.20;;;5.80;99.90;;;;;;5075131;28;20452;-82
2023/01/04 09:18:45;;;;;;;1.63;0.50;;;5.80;99.90;;;;;;5074651;28;21054;-81
2023/01/04 09:21:14;;;;;;;0.73;0.33;;;5.80;99.90;;;;;;5074703;28;20456;-81
2023/01/04 09:23:42;;;;;;;1.13;0.30;;;5.90;99.90;;;;;;5074867;28;20469;-81
2023/01/04 09:26:11;;;;;;;0.47;0.40;;;5.90;99.90;;;;;;5074923;28;20453;-81
2023/01/04 09:28:38;;;;;;;0.30;0.30;;;6.00;99.90;;;;;;5074830;28;20461;-81
2023/01/04 09:31:06;;;;;;;0.30;0.20;;;6.00;99.90;;;;;;5075058;28;20801;-80
2023/01/04 09:33:34;;;;;;;0.40;0.30;;;6.10;99.90;;;;;;5074261;28;20458;-81
2023/01/04 09:36:03;;;;;;;0.30;0.30;;;6.20;99.90;;;;;;5074652;28;20441;-81
2023/01/04 09:38:30;;;;;;;0.50;0.40;;;6.20;99.90;;;;;;5074190;28;21074;-81
2023/01/04 09:41:03;;;;;;;0.30;0.30;;;6.20;99.90;;;;;;5074515;28;20456;-81
2023/01/04 09:43:38;;;;;;;0.30;0.30;;;6.30;99.90;;;;;;5074512;28;20774;-81
2023/01/04 09:46:10;;;;;;;0.30;0.27;;;6.30;99.90;;;;;;5074150;28;20924;-81
2023/01/04 09:48:42;;;;;;;0.30;0.20;;;6.40;99.90;;;;;;5074575;28;20454;-82
2023/01/04 09:51:15;;;;;;;0.37;0.33;;;6.50;99.90;;;;;;5074368;28;20434;-81
2023/01/04 09:53:46;;;;;;;0.30;0.30;;;6.50;99.90;;;;;;5074236;28;20497;-81
2023/01/04 09:56:18;;;;;;;0.30;0.30;;;6.60;99.90;;;;;;5074054;28;20433;-81
2023/01/04 09:58:45;;;;;;;0.37;0.30;;;6.60;99.90;;;;;;5074117;28;20480;-81
2023/01/04 10:01:15;;;;;;;0.43;0.43;;;6.60;99.90;;;;;;5073824;28;20938;-82
2023/01/04 10:03:53;;;;;;;0.50;0.47;;;6.70;99.90;;;;;;5074079;28;21011;-81
2023/01/04 10:06:20;;;;;;;0.30;0.30;;;6.70;99.90;;;;;;5074652;28;20441;-81
2023/01/04 10:08:47;;;;;;;0.30;0.30;;;6.80;99.90;;;;;;5073647;28;20410;-82
2023/01/04 10:11:25;;;;;;;1.90;0.43;;;6.80;99.90;;;;;;5073995;28;20895;-82
2023/01/04 10:14:10;;;;;;;0.30;0.30;;;6.80;99.90;;;;;;5073905;28;20516;-81
2023/01/04 10:16:50;;;;;;;0.30;0.30;;;6.80;99.90;;;;;;5074277;28;20805;-81
2023/01/04 10:19:30;;;;;;;0.30;0.30;;;6.80;99.90;;;;;;5074151;28;20488;-82
2023/01/04 10:22:01;;;;;;;0.30;0.20;;;6.80;99.90;;;;;;5073956;28;20433;-81
2023/01/04 10:24:45;;;;;;;0.30;0.30;;;6.90;99.90;;;;;;5073843;28;20473;-81
2023/01/04 10:27:19;;;;;;;0.30;0.30;;;6.90;99.90;;;;;;5074099;28;20444;-82
2023/01/04 10:29:59;;;;;;;1.13;1.13;;;6.90;99.90;;;;;;5073714;28;20430;-81
2023/01/04 10:32:33;;;;;;;0.30;0.20;;;6.90;99.90;;;;;;5074033;28;20434;-81
2023/01/04 10:35:12;;;;;;;0.30;0.20;;;7.00;99.90;;;;;;5073828;28;20474;-81
2023/01/04 10:37:39;;;;;;;0.40;0.30;;;7.00;99.90;;;;;;5073623;28;20461;-81
2023/01/04 10:40:13;;;;;;;0.30;0.30;;;7.10;99.90;;;;;;5073265;28;21000;-81
2023/01/04 10:42:48;;;;;;;0.57;0.57;;;7.20;99.90;;;;;;5073333;28;20909;-82
2023/01/04 10:45:18;;;;;;;0.40;0.30;;;7.20;99.90;;;;;;5074019;28;20456;-82
2023/01/04 10:47:56;;;;;;;0.30;0.30;;;7.30;99.90;;;;;;5073288;28;20959;-83
2023/01/04 10:50:30;;;;;;;0.30;0.30;;;7.30;99.90;;;;;;5073896;28;20843;-81
2023/01/04 10:53:03;;;;;;;0.30;0.20;;;7.40;99.90;;;;;;5073669;28;20441;-81
2023/01/04 10:55:38;;;;;;;0.40;0.40;;;7.60;99.90;;;;;;5074416;28;20473;-81
2023/01/04 10:58:12;;;;;;;7.73;0.60;;;7.60;99.90;;;;;;5076283;28;20430;-81
2023/01/04 11:00:43;;;;;;;0.30;0.30;;;7.70;99.90;;;;;;5073741;28;20992;-81
2023/01/04 11:03:17;;;;;;;1.17;0.70;;;7.70;99.90;;;;;;5073899;28;20917;-81
2023/01/04 11:05:50;;;;;;;0.30;0.30;;;7.60;99.90;;;;;;5074003;28;20466;-81
2023/01/04 11:08:21;;;;;;;1.10;0.60;;;7.60;99.90;;;;;;5073463;28;20800;-81
2023/01/04 11:10:52;;;;;;;0.30;0.20;;;7.70;99.90;;;;;;5073161;28;20440;-82
2023/01/04 11:13:19;;;;;;;0.40;0.30;;;7.60;99.90;;;;;;5073341;28;20535;-81
2023/01/04 11:15:47;;;;;;;2.13;2.00;;;7.60;99.90;;;;;;5073377;28;20466;-81
2023/01/04 11:18:15;;;;;;;0.30;0.20;;;7.70;99.90;;;;;;5073400;28;20515;-82
2023/01/04 11:20:43;;;;;;;0.30;0.20;;;7.60;99.90;;;;;;5075788;28;20484;-82
2023/01/04 11:23:15;;;;;;;0.30;0.30;;;7.70;99.90;;;;;;5077529;28;20838;-81
2023/01/04 11:25:47;;;;;;;0.30;0.20;;;7.70;99.90;;;;;;5077252;28;20472;-83
2023/01/04 11:28:18;;;;;;;0.30;0.30;;;7.80;99.90;;;;;;5077440;28;20495;-82
2023/01/04 11:31:01;;;;;;;0.47;0.30;;;7.80;99.90;;;;;;5077601;28;20444;-83
2023/01/04 11:33:28;;;;;;;0.30;0.30;;;7.80;99.90;;;;;;5077320;28;20436;-82
2023/01/04 11:35:58;;;;;;;0.37;0.30;;;7.80;99.90;;;;;;5078265;28;20835;-82
2023/01/04 11:38:28;;;;;;;0.40;0.30;;;7.80;99.90;;;;;;5077337;28;20438;-83
2023/01/04 11:40:57;;;;;;;0.43;0.30;;;7.80;99.90;;;;;;5078344;28;20512;-82
2023/01/04 11:43:25;;;;;;;0.40;0.30;;;7.90;99.90;;;;;;5076859;28;20437;-80
2023/01/04 11:45:58;;;;;;;0.30;0.30;;;8.00;99.90;;;;;;5077065;28;20536;-82
2023/01/04 11:48:36;;;;;;;0.30;0.20;;;8.00;99.90;;;;;;5077043;28;20523;-81
2023/01/04 11:51:04;;;;;;;0.40;0.30;;;7.90;99.90;;;;;;5076900;28;20429;-82
2023/01/04 11:53:34;;;;;;;0.30;0.23;;;8.00;99.90;;;;;;5076510;28;20965;-82
2023/01/04 11:56:20;;;;;;;0.50;0.50;;;8.10;99.90;;;;;;5077216;28;20453;-81
2023/01/04 11:59:10;;;;;;;0.53;0.53;;;8.10;99.90;;;;;;5076850;28;20434;-82
2023/01/04 12:01:39;;;;;;;0.40;0.40;;;8.20;99.90;;;;;;5076960;28;20434;-83
2023/01/04 12:04:15;;;;;;;0.30;0.27;;;8.20;99.90;;;;;;5076538;28;20468;-83
2023/01/04 12:06:48;;;;;;;0.60;0.30;;;8.30;99.90;;;;;;5076707;28;20437;-83
2023/01/04 12:09:18;;;;;;;0.30;0.20;;;8.30;99.90;;;;;;5076308;28;20432;-82
2023/01/04 12:11:49;;;;;;;0.30;0.20;;;8.40;99.90;;;;;;5076646;28;20955;-83
2023/01/04 12:14:24;;;;;;;0.30;0.30;;;8.50;99.90;;;;;;5075268;28;20492;-83
2023/01/04 12:17:04;;;;;;;0.30;0.20;;;8.60;99.90;;;;;;5075799;28;20807;-82
2023/01/04 12:19:30;;;;;;;1.07;0.30;;;8.70;99.90;;;;;;5074935;28;20469;-83
2023/01/04 12:22:00;;;;;;;0.30;0.30;;;8.70;99.90;;;;;;5075394;28;20449;-83
2023/01/04 12:24:31;;;;;;;0.30;0.20;;;8.70;99.90;;;;;;5075316;28;20462;-83
2023/01/04 12:26:59;;;;;;;0.40;0.30;;;8.70;99.90;;;;;;5075658;28;20438;-83
2023/01/04 12:29:53;;;;;;;0.30;0.20;;;8.70;99.90;;;;;;5075180;28;20449;-83
2023/01/04 12:32:42;;;;;;;0.40;0.30;;;8.70;99.90;;;;;;5074762;28;20484;-83
2023/01/04 12:35:58;;;;;;;0.30;0.30;;;8.70;99.90;;;;;;5070339;28;20981;-83
2023/01/04 12:39:12;;;;;;;0.30;0.30;;;8.80;99.90;;;;;;5058169;28;20503;-82
2023/01/04 12:42:16;;;;;;;0.30;0.30;;;8.90;99.90;;;;;;5013052;28;20444;-82
2023/01/04 12:45:20;;;;;;;0.40;0.30;;;8.90;99.90;;;;;;5013318;28;20480;-83
2023/01/04 12:51:20;;;;;;;0.30;0.20;;;8.90;99.90;;;;;;5075152;28;20472;-80
2023/01/04 12:54:00;;;;;;;0.30;0.20;;;8.90;99.90;;;;;;5074209;28;20454;-80
2023/01/04 12:57:04;;;;;;;0.30;0.30;;;9.00;99.90;;;;;;5074232;28;20939;-80
2023/01/04 12:59:34;;;;;;;0.40;0.30;;;9.10;99.90;;;;;;5074528;28;20508;-80
2023/01/04 13:02:21;;;;;;;0.30;0.27;;;9.10;99.90;;;;;;5073993;28;20446;-81
2023/01/04 13:04:49;;;;;;;0.30;0.20;;;9.20;99.90;;;;;;5073636;28;20465;-80
2023/01/04 13:07:21;;;;;;;0.40;0.30;;;9.10;99.90;;;;;;5074301;28;20487;-80
2023/01/04 13:09:56;;;;;;;1.47;0.33;;;9.20;99.90;;;;;;5073916;28;20924;-80
2023/01/04 13:12:52;;;;;;;0.30;0.30;;;9.20;99.90;;;;;;5036978;28;1050911;-82
2023/01/04 13:15:24;;;;;;;0.30;0.20;;;9.20;99.90;;;;;;5075312;28;20469;-80
2023/01/04 13:17:52;;;;;;;0.50;0.40;;;9.20;99.90;;;;;;5075135;28;20433;-80
2023/01/04 13:20:22;;;;;;;0.30;0.30;;;9.20;99.90;;;;;;5075113;28;20489;-80
2023/01/04 13:22:53;;;;;;;0.40;0.30;;;9.30;99.90;;;;;;5075300;28;20429;-80
2023/01/04 13:25:23;;;;;;;0.30;0.30;;;9.30;99.90;;;;;;5074903;28;20466;-80
2023/01/04 13:27:58;;;;;;;0.30;0.20;;;9.40;99.90;;;;;;5075933;28;20786;-81
2023/01/04 13:30:34;;;;;;;0.30;0.30;;;9.40;99.90;;;;;;5074827;28;20444;-81
2023/01/04 13:33:09;;;;;;;0.70;0.30;;;9.40;99.90;;;;;;5074794;28;20437;-80
2023/01/04 13:35:36;;;;;;;0.30;0.20;;;9.40;99.90;;;;;;5074713;28;20827;-81
2023/01/04 13:38:11;;;;;;;0.73;0.30;;;9.50;99.90;;;;;;5074398;28;20457;-80
2023/01/04 13:40:44;;;;;;;0.30;0.30;;;9.50;99.90;;;;;;5074564;28;20480;-81
2023/01/04 13:43:33;;;;;;;0.50;0.30;;;9.40;99.90;;;;;;5073818;28;20531;-80
2023/01/04 13:46:11;;;;;;;0.70;0.30;;;9.40;99.90;;;;;;5074493;28;20460;-81
2023/01/04 13:48:41;;;;;;;0.30;0.30;;;9.40;99.90;;;;;;5074520;28;20441;-80
2023/01/04 13:51:15;;;;;;;0.30;0.27;;;9.40;99.90;;;;;;5074723;28;20441;-80
2023/01/04 13:53:42;;;;;;;0.30;0.30;;;9.40;99.90;;;;;;5074090;28;20476;-80
2023/01/04 13:56:20;;;;;;;0.30;0.30;;;9.40;99.90;;;;;;5074347;28;20457;-80
2023/01/04 13:58:47;;;;;;;0.30;0.30;;;9.40;99.90;;;;;;5074380;28;20425;-79
2023/01/04 14:01:17;;;;;;;0.40;0.27;;;9.40;99.90;;;;;;5073887;28;21051;-79
2023/01/04 14:03:46;;;;;;;0.30;0.30;;;9.30;99.90;;;;;;5073836;28;21015;-78
2023/01/04 14:06:20;;;;;;;0.40;0.30;;;9.40;99.90;;;;;;5073881;28;20453;-79
2023/01/04 14:08:56;;;;;;;0.30;0.30;;;9.30;99.90;;;;;;5074127;28;20432;-79
2023/01/04 14:14:25;;;;;;;0.40;0.40;;;9.30;99.90;;;;;;5073651;28;21007;-80